KBOS/BOS METAR and TAF weather

Enter ICAO airport designator
Station Type Date Time Source
KBOS METAR 2020/10/29 16:54 UTC NOAA

KBOS 291654Z 18007KT 10SM -RA BKN075 OVC100 08/05 A2988 RMK AO2 SLP118 P0005 T00830050


Station Type Date Time Source
KBOS Decoded METAR 2020/10/29 16:54 UTC NOAA

BOSTON LOGAN INTERNATIONAL, MA, United States (KBOS) 42-22N 071-01W 54M
Oct 29, 2020 - 12:54 PM EDT / 2020.10.29 1654 UTC
Wind: from the S (180 degrees) at 8 MPH (7 KT):0
Visibility: 10 mile(s):0
Sky conditions: overcast
Weather: light rain
Precipitation last hour: 0.05 inches
Temperature: 46.9 F (8.3 C)
Dew Point: 41.0 F (5.0 C)
Relative Humidity: 79%
Pressure (altimeter): 29.88 in. Hg (1011 hPa)
ob: KBOS 291654Z 18007KT 10SM -RA BKN075 OVC100 08/05 A2988 RMK AO2 SLP118 P0005 T00830050
cycle: 17

Station Type Date Time Source
KBOS TAF 2020/10/29 14:34 UTC NOAA

TAF
AMD KBOS 291427Z 2914/3018 20004KT P6SM -RA OVC100
FM291600 06004KT P6SM -RA BKN040 OVC070
FM292000 04008KT 6SM -RA BR OVC025
FM292300 02013G19KT 2SM -RA BR OVC009
FM300300 03019G30KT 2SM -RA BR OVC005
FM301100 02018G29KT 3SM -RASN BR OVC005
FM301500 01018G27KT 1 1/2SM -SN BR OVC015

Example: see airport list